sensor_id;sensor_type;location;lat;lon;timestamp;pressure;altitude;pressure_sealevel;temperature;humidity
29045;BME280;16133;49.486;12.176;2023-04-03T00:00:49;98128.59;;;-0.16;100.00
29045;BME280;16133;49.486;12.176;2023-04-03T00:03:15;98126.28;;;-0.20;100.00
29045;BME280;16133;49.486;12.176;2023-04-03T00:05:41;98128.41;;;-0.27;100.00
29045;BME280;16133;49.486;12.176;2023-04-03T00:08:07;98128.06;;;-0.35;100.00
29045;BME280;16133;49.486;12.176;2023-04-03T00:10:35;98131.88;;;-0.40;100.00
29045;BME280;16133;49.486;12.176;2023-04-03T00:13:01;98124.81;;;-0.53;100.00
29045;BME280;16133;49.486;12.176;2023-04-03T00:15:26;98124.06;;;-0.55;100.00
29045;BME280;16133;49.486;12.176;2023-04-03T00:17:51;98129.09;;;-0.66;100.00
29045;BME280;16133;49.486;12.176;2023-04-03T00:20:17;98129.19;;;-0.81;100.00
29045;BME280;16133;49.486;12.176;2023-04-03T00:22:42;98133.91;;;-0.88;100.00
29045;BME280;16133;49.486;12.176;2023-04-03T00:25:08;98136.97;;;-0.96;100.00
29045;BME280;16133;49.486;12.176;2023-04-03T00:27:37;98127.56;;;-0.98;100.00
29045;BME280;16133;49.486;12.176;2023-04-03T00:30:03;98096.84;;;-1.21;100.00
29045;BME280;16133;49.486;12.176;2023-04-03T00:32:29;98129.44;;;-1.00;100.00
29045;BME280;16133;49.486;12.176;2023-04-03T00:34:55;98128.22;;;-0.94;100.00
29045;BME280;16133;49.486;12.176;2023-04-03T00:37:20;98134.84;;;-0.89;100.00
29045;BME280;16133;49.486;12.176;2023-04-03T00:39:45;98134.94;;;-0.90;100.00
29045;BME280;16133;49.486;12.176;2023-04-03T00:42:11;98133.81;;;-0.86;100.00
29045;BME280;16133;49.486;12.176;2023-04-03T00:47:04;98136.25;;;-0.83;100.00
29045;BME280;16133;49.486;12.176;2023-04-03T00:49:31;98140.44;;;-0.81;100.00
29045;BME280;16133;49.486;12.176;2023-04-03T00:51:57;98134.47;;;-0.83;100.00
29045;BME280;16133;49.486;12.176;2023-04-03T00:54:23;98129.25;;;-0.83;100.00
29045;BME280;16133;49.486;12.176;2023-04-03T00:56:51;98134.22;;;-0.78;100.00
29045;BME280;16133;49.486;12.176;2023-04-03T00:59:24;98131.34;;;-0.74;100.00
29045;BME280;16133;49.486;12.176;2023-04-03T01:01:52;98135.16;;;-0.65;100.00
29045;BME280;16133;49.486;12.176;2023-04-03T01:04:31;98128.16;;;-0.65;100.00
29045;BME280;16133;49.486;12.176;2023-04-03T01:07:01;98130.69;;;-0.63;100.00
29045;BME280;16133;49.486;12.176;2023-04-03T01:09:28;98132.16;;;-0.59;100.00
29045;BME280;16133;49.486;12.176;2023-04-03T01:11:54;98135.44;;;-0.56;100.00
29045;BME280;16133;49.486;12.176;2023-04-03T01:14:20;98136.53;;;-0.45;100.00
29045;BME280;16133;49.486;12.176;2023-04-03T01:16:54;98131.16;;;-0.42;100.00
29045;BME280;16133;49.486;12.176;2023-04-03T01:19:21;98126.47;;;-0.37;100.00
29045;BME280;16133;49.486;12.176;2023-04-03T01:22:09;98134.38;;;-0.25;100.00
29045;BME280;16133;49.486;12.176;2023-04-03T01:24:40;98129.91;;;-0.23;100.00
29045;BME280;16133;49.486;12.176;2023-04-03T01:27:08;98128.97;;;-0.22;100.00
29045;BME280;16133;49.486;12.176;2023-04-03T01:29:34;98137.25;;;-0.15;100.00
29045;BME280;16133;49.486;12.176;2023-04-03T01:32:01;98143.00;;;-0.10;100.00
29045;BME280;16133;49.486;12.176;2023-04-03T01:34:28;98139.28;;;-0.06;100.00
29045;BME280;16133;49.486;12.176;2023-04-03T01:36:53;98133.97;;;-0.05;100.00
29045;BME280;16133;49.486;12.176;2023-04-03T01:39:19;98139.00;;;-0.02;100.00
29045;BME280;16133;49.486;12.176;2023-04-03T01:41:46;98140.50;;;0.03;100.00
29045;BME280;16133;49.486;12.176;2023-04-03T01:44:11;98140.84;;;0.11;100.00
29045;BME280;16133;49.486;12.176;2023-04-03T01:46:37;98145.22;;;0.10;100.00
29045;BME280;16133;49.486;12.176;2023-04-03T01:49:03;98145.22;;;0.10;100.00
29045;BME280;16133;49.486;12.176;2023-04-03T01:51:29;98143.44;;;0.11;100.00
29045;BME280;16133;49.486;12.176;2023-04-03T01:53:55;98143.34;;;0.12;100.00
29045;BME280;16133;49.486;12.176;2023-04-03T01:56:20;98140.09;;;0.09;100.00
29045;BME280;16133;49.486;12.176;2023-04-03T01:58:46;98147.72;;;0.12;100.00
29045;BME280;16133;49.486;12.176;2023-04-03T02:01:11;98148.75;;;0.09;100.00
29045;BME280;16133;49.486;12.176;2023-04-03T02:03:36;98144.47;;;0.08;100.00
29045;BME280;16133;49.486;12.176;2023-04-03T02:06:02;98150.63;;;0.07;100.00
29045;BME280;16133;49.486;12.176;2023-04-03T02:08:27;98155.00;;;0.07;100.00
29045;BME280;16133;49.486;12.176;2023-04-03T02:10:53;98150.63;;;0.07;100.00
29045;BME280;16133;49.486;12.176;2023-04-03T02:13:18;98155.84;;;0.07;100.00
29045;BME280;16133;49.486;12.176;2023-04-03T02:15:44;98153.88;;;0.11;100.00
29045;BME280;16133;49.486;12.176;2023-04-03T02:18:11;98148.75;;;0.09;100.00
29045;BME280;16133;49.486;12.176;2023-04-03T02:20:36;98153.97;;;0.09;100.00
29045;BME280;16133;49.486;12.176;2023-04-03T02:23:02;98152.13;;;0.11;100.00
29045;BME280;16133;49.486;12.176;2023-04-03T02:25:28;98156.22;;;0.15;100.00
29045;BME280;16133;49.486;12.176;2023-04-03T02:27:53;98154.53;;;0.14;100.00
29045;BME280;16133;49.486;12.176;2023-04-03T02:30:19;98161.44;;;0.15;100.00
29045;BME280;16133;49.486;12.176;2023-04-03T02:32:44;98162.34;;;0.14;100.00
29045;BME280;16133;49.486;12.176;2023-04-03T02:35:10;98159.00;;;0.12;100.00
29045;BME280;16133;49.486;12.176;2023-04-03T02:37:37;98157.34;;;0.11;100.00
29045;BME280;16133;49.486;12.176;2023-04-03T02:40:03;98158.06;;;0.13;100.00
29045;BME280;16133;49.486;12.176;2023-04-03T02:42:28;98148.56;;;0.12;100.00
29045;BME280;16133;49.486;12.176;2023-04-03T02:44:54;98160.03;;;0.10;100.00
29045;BME280;16133;49.486;12.176;2023-04-03T02:47:20;98156.38;;;0.12;100.00
29045;BME280;16133;49.486;12.176;2023-04-03T02:49:45;98159.84;;;0.13;100.00
29045;BME280;16133;49.486;12.176;2023-04-03T02:52:12;98158.25;;;0.10;100.00
29045;BME280;16133;49.486;12.176;2023-04-03T02:54:37;98166.81;;;0.12;100.00
29045;BME280;16133;49.486;12.176;2023-04-03T02:57:03;98163.38;;;0.12;100.00
29045;BME280;16133;49.486;12.176;2023-04-03T02:59:29;98160.88;;;0.10;100.00
29045;BME280;16133;49.486;12.176;2023-04-03T03:01:54;98162.56;;;0.11;100.00
29045;BME280;16133;49.486;12.176;2023-04-03T03:04:21;98156.38;;;0.12;100.00
29045;BME280;16133;49.486;12.176;2023-04-03T03:06:46;98158.16;;;0.12;100.00
29045;BME280;16133;49.486;12.176;2023-04-03T03:09:12;98162.56;;;0.11;100.00
29045;BME280;16133;49.486;12.176;2023-04-03T03:11:38;98162.56;;;0.11;100.00
29045;BME280;16133;49.486;12.176;2023-04-03T03:14:03;98160.88;;;0.10;100.00
29045;BME280;16133;49.486;12.176;2023-04-03T03:16:29;98169.44;;;0.12;100.00
29045;BME280;16133;49.486;12.176;2023-04-03T03:18:55;98165.97;;;0.12;100.00
29045;BME280;16133;49.486;12.176;2023-04-03T03:21:20;98160.03;;;0.10;100.00
29045;BME280;16133;49.486;12.176;2023-04-03T03:23:45;98157.34;;;0.11;100.00
29045;BME280;16133;49.486;12.176;2023-04-03T03:26:11;98164.28;;;0.25;100.00
29045;BME280;16133;49.486;12.176;2023-04-03T03:28:38;98172.31;;;0.22;100.00
29045;BME280;16133;49.486;12.176;2023-04-03T03:31:04;98161.66;;;0.25;100.00
29045;BME280;16133;49.486;12.176;2023-04-03T03:33:31;98161.97;;;0.20;100.00
29045;BME280;16133;49.486;12.176;2023-04-03T03:35:56;98158.63;;;0.18;100.00
29045;BME280;16133;49.486;12.176;2023-04-03T03:38:22;98164.69;;;0.19;100.00
29045;BME280;16133;49.486;12.176;2023-04-03T03:40:49;98163.63;;;0.21;100.00
29045;BME280;16133;49.486;12.176;2023-04-03T03:43:15;98162.16;;;0.17;100.00
29045;BME280;16133;49.486;12.176;2023-04-03T03:45:40;98165.69;;;0.16;100.00
29045;BME280;16133;49.486;12.176;2023-04-03T03:48:06;98164.22;;;0.12;100.00
29045;BME280;16133;49.486;12.176;2023-04-03T03:50:31;98159.00;;;0.12;100.00
29045;BME280;16133;49.486;12.176;2023-04-03T03:52:57;98164.84;;;0.16;100.00
29045;BME280;16133;49.486;12.176;2023-04-03T03:55:22;98161.31;;;0.17;100.00
29045;BME280;16133;49.486;12.176;2023-04-03T03:57:48;98171.66;;;0.18;100.00
29045;BME280;16133;49.486;12.176;2023-04-03T04:00:13;98164.75;;;0.17;100.00
29045;BME280;16133;49.486;12.176;2023-04-03T04:02:39;98168.66;;;0.24;100.00
29045;BME280;16133;49.486;12.176;2023-04-03T04:05:05;98164.28;;;0.25;100.00
29045;BME280;16133;49.486;12.176;2023-04-03T04:07:30;98169.50;;;0.25;100.00
29045;BME280;16133;49.486;12.176;2023-04-03T04:09:55;98170.34;;;0.25;100.00
29045;BME280;16133;49.486;12.176;2023-04-03T04:12:21;98172.03;;;0.26;100.00
29045;BME280;16133;49.486;12.176;2023-04-03T04:14:46;98172.94;;;0.25;100.00
29045;BME280;16133;49.486;12.176;2023-04-03T04:17:15;98169.50;;;0.25;100.00
29045;BME280;16133;49.486;12.176;2023-04-03T04:19:41;98170.44;;;0.24;100.00
29045;BME280;16133;49.486;12.176;2023-04-03T04:22:06;98173.88;;;0.24;100.00
29045;BME280;16133;49.486;12.176;2023-04-03T04:24:32;98176.28;;;0.27;100.00
29045;BME280;16133;49.486;12.176;2023-04-03T04:26:57;98174.63;;;0.26;100.00
29045;BME280;16133;49.486;12.176;2023-04-03T04:29:23;98174.44;;;0.29;100.00
29045;BME280;16133;49.486;12.176;2023-04-03T04:31:48;98175.47;;;0.27;100.00
29045;BME280;16133;49.486;12.176;2023-04-03T04:34:14;98177.25;;;0.26;100.00
29045;BME280;16133;49.486;12.176;2023-04-03T04:36:40;98183.09;;;0.30;100.00
29045;BME280;16133;49.486;12.176;2023-04-03T04:39:05;98174.53;;;0.28;100.00
29045;BME280;16133;49.486;12.176;2023-04-03T04:41:31;98179.66;;;0.29;100.00
29045;BME280;16133;49.486;12.176;2023-04-03T04:43:56;98176.41;;;0.26;100.00
29045;BME280;16133;49.486;12.176;2023-04-03T04:46:22;98177.25;;;0.26;100.00
29045;BME280;16133;49.486;12.176;2023-04-03T04:48:47;98184.13;;;0.27;100.00
29045;BME280;16133;49.486;12.176;2023-04-03T04:51:14;98179.94;;;0.25;100.00
29045;BME280;16133;49.486;12.176;2023-04-03T04:53:39;98180.69;;;0.27;100.00
29045;BME280;16133;49.486;12.176;2023-04-03T04:56:05;98183.09;;;0.30;100.00
29045;BME280;16133;49.486;12.176;2023-04-03T04:58:31;98182.06;;;0.32;100.00
29045;BME280;16133;49.486;12.176;2023-04-03T05:01:07;98182.06;;;0.32;100.00
29045;BME280;16133;49.486;12.176;2023-04-03T05:03:33;98187.84;;;0.37;100.00
29045;BME280;16133;49.486;12.176;2023-04-03T05:05:59;98185.03;;;0.40;100.00
29045;BME280;16133;49.486;12.176;2023-04-03T05:08:24;98191.72;;;0.44;100.00
29045;BME280;16133;49.486;12.176;2023-04-03T05:10:50;98197.59;;;0.48;100.00
29045;BME280;16133;49.486;12.176;2023-04-03T05:13:16;98191.88;;;0.56;100.00
29045;BME280;16133;49.486;12.176;2023-04-03T05:15:41;98196.81;;;0.60;100.00
29045;BME280;16133;49.486;12.176;2023-04-03T05:18:07;98192.22;;;0.64;100.00
29045;BME280;16133;49.486;12.176;2023-04-03T05:20:33;98201.41;;;0.69;100.00
29045;BME280;16133;49.486;12.176;2023-04-03T05:22:58;98201.88;;;0.76;100.00
29045;BME280;16133;49.486;12.176;2023-04-03T05:25:24;98203.88;;;0.85;100.00
29045;BME280;16133;49.486;12.176;2023-04-03T05:27:50;98202.03;;;0.87;100.00
29045;BME280;16133;49.486;12.176;2023-04-03T05:30:15;98205.69;;;0.97;100.00
29045;BME280;16133;49.486;12.176;2023-04-03T05:32:41;98207.91;;;1.03;100.00
29045;BME280;16133;49.486;12.176;2023-04-03T05:35:06;98208.44;;;1.08;100.00
29045;BME280;16133;49.486;12.176;2023-04-03T05:37:33;98209.91;;;1.12;100.00
29045;BME280;16133;49.486;12.176;2023-04-03T05:39:58;98214.94;;;1.15;100.00
29045;BME280;16133;49.486;12.176;2023-04-03T05:42:24;98213.41;;;1.25;100.00
29045;BME280;16133;49.486;12.176;2023-04-03T05:44:50;98213.81;;;1.32;100.00
29045;BME280;16133;49.486;12.176;2023-04-03T05:47:16;98214.97;;;1.40;100.00
29045;BME280;16133;49.486;12.176;2023-04-03T05:49:41;98222.09;;;1.51;100.00
29045;BME280;16133;49.486;12.176;2023-04-03T05:52:38;98218.75;;;1.62;100.00
29045;BME280;16133;49.486;12.176;2023-04-03T05:55:02;98226.69;;;1.73;100.00
29045;BME280;16133;49.486;12.176;2023-04-03T05:57:28;98227.13;;;1.79;100.00
29045;BME280;16133;49.486;12.176;2023-04-03T05:59:53;98223.25;;;1.85;100.00
29045;BME280;16133;49.486;12.176;2023-04-03T06:02:21;98216.53;;;1.93;100.00
29045;BME280;16133;49.486;12.176;2023-04-03T06:04:47;98226.56;;;2.00;100.00
29045;BME280;16133;49.486;12.176;2023-04-03T06:07:20;98227.09;;;2.05;100.00
29045;BME280;16133;49.486;12.176;2023-04-03T06:09:48;98224.16;;;2.09;100.00
29045;BME280;16133;49.486;12.176;2023-04-03T06:12:14;98227.72;;;2.21;100.00
29045;BME280;16133;49.486;12.176;2023-04-03T06:14:40;98231.88;;;2.23;100.00
29045;BME280;16133;49.486;12.176;2023-04-03T06:17:07;98232.16;;;2.44;100.00
29045;BME280;16133;49.486;12.176;2023-04-03T06:19:33;98229.31;;;2.47;100.00
29045;BME280;16133;49.486;12.176;2023-04-03T06:21:59;98232.53;;;2.63;100.00
29045;BME280;16133;49.486;12.176;2023-04-03T06:24:24;98234.31;;;2.63;100.00
29045;BME280;16133;49.486;12.176;2023-04-03T06:26:51;98240.53;;;2.73;100.00
29045;BME280;16133;49.486;12.176;2023-04-03T06:29:18;98244.91;;;2.85;99.60
29045;BME280;16133;49.486;12.176;2023-04-03T06:31:43;98243.78;;;3.00;98.88
29045;BME280;16133;49.486;12.176;2023-04-03T06:34:09;98245.97;;;3.06;96.33
29045;BME280;16133;49.486;12.176;2023-04-03T06:36:36;98252.44;;;3.13;95.92
29045;BME280;16133;49.486;12.176;2023-04-03T06:39:01;98247.50;;;3.32;92.65
29045;BME280;16133;49.486;12.176;2023-04-03T06:41:28;98249.53;;;3.29;91.18
29045;BME280;16133;49.486;12.176;2023-04-03T06:43:53;98251.09;;;3.43;89.84
29045;BME280;16133;49.486;12.176;2023-04-03T06:46:22;98257.47;;;3.62;88.82
29045;BME280;16133;49.486;12.176;2023-04-03T06:48:48;98252.25;;;3.73;87.22
29045;BME280;16133;49.486;12.176;2023-04-03T06:51:20;98260.50;;;3.80;87.21
29045;BME280;16133;49.486;12.176;2023-04-03T06:53:48;98268.16;;;3.94;87.15
29045;BME280;16133;49.486;12.176;2023-04-03T06:56:14;98259.34;;;4.06;87.15
29045;BME280;16133;49.486;12.176;2023-04-03T06:58:40;98262.44;;;4.22;84.87
29045;BME280;16133;49.486;12.176;2023-04-03T07:01:05;98264.59;;;4.28;83.65
29045;BME280;16133;49.486;12.176;2023-04-03T07:03:31;98270.56;;;4.30;84.87
29045;BME280;16133;49.486;12.176;2023-04-03T07:05:56;98275.94;;;4.51;83.74
29045;BME280;16133;49.486;12.176;2023-04-03T07:08:22;98272.69;;;4.70;82.07
29045;BME280;16133;49.486;12.176;2023-04-03T07:10:48;98273.88;;;4.77;81.40
29045;BME280;16133;49.486;12.176;2023-04-03T07:13:15;98272.91;;;4.89;80.77
29045;BME280;16133;49.486;12.176;2023-04-03T07:15:40;98286.94;;;5.10;79.68
29045;BME280;16133;49.486;12.176;2023-04-03T07:18:06;98285.63;;;5.16;78.48
29045;BME280;16133;49.486;12.176;2023-04-03T07:20:31;98289.09;;;5.16;76.71
29045;BME280;16133;49.486;12.176;2023-04-03T07:22:57;98288.56;;;5.22;76.68
29045;BME280;16133;49.486;12.176;2023-04-03T07:25:22;98290.56;;;4.98;76.00
29045;BME280;16133;49.486;12.176;2023-04-03T07:27:48;98291.56;;;4.86;76.40
29045;BME280;16133;49.486;12.176;2023-04-03T07:30:14;98286.78;;;4.69;76.95
29045;BME280;16133;49.486;12.176;2023-04-03T07:32:40;98288.72;;;4.56;76.95
29045;BME280;16133;49.486;12.176;2023-04-03T07:35:05;98287.72;;;4.68;75.95
29045;BME280;16133;49.486;12.176;2023-04-03T07:37:31;98291.06;;;4.81;72.92
29045;BME280;16133;49.486;12.176;2023-04-03T07:39:57;98292.13;;;5.01;72.05
29045;BME280;16133;49.486;12.176;2023-04-03T07:42:24;98294.41;;;4.72;71.18
29045;BME280;16133;49.486;12.176;2023-04-03T07:44:51;98300.88;;;4.57;68.81
29045;BME280;16133;49.486;12.176;2023-04-03T07:47:17;98298.25;;;4.57;64.19
29045;BME280;16133;49.486;12.176;2023-04-03T07:49:43;98302.06;;;4.08;65.98
29045;BME280;16133;49.486;12.176;2023-04-03T07:52:09;98307.19;;;3.99;65.06
29045;BME280;16133;49.486;12.176;2023-04-03T07:54:34;98305.84;;;3.82;62.69
29045;BME280;16133;49.486;12.176;2023-04-03T07:57:00;98306.78;;;3.46;65.21
29045;BME280;16133;49.486;12.176;2023-04-03T07:59:26;98311.78;;;3.14;66.63
29045;BME280;16133;49.486;12.176;2023-04-03T08:01:51;98313.00;;;2.98;66.65
29045;BME280;16133;49.486;12.176;2023-04-03T08:04:17;98313.97;;;2.84;67.43
29045;BME280;16133;49.486;12.176;2023-04-03T08:06:42;98317.38;;;2.73;67.38
29045;BME280;16133;49.486;12.176;2023-04-03T08:09:08;98313.16;;;2.83;65.86
29045;BME280;16133;49.486;12.176;2023-04-03T08:11:33;98314.22;;;2.68;67.38
29045;BME280;16133;49.486;12.176;2023-04-03T08:13:59;98311.84;;;2.65;66.95
29045;BME280;16133;49.486;12.176;2023-04-03T08:16:24;98326.69;;;2.77;65.44
29045;BME280;16133;49.486;12.176;2023-04-03T08:18:53;98310.88;;;2.79;64.33
29045;BME280;16133;49.486;12.176;2023-04-03T08:21:18;98316.53;;;3.09;60.42
29045;BME280;16133;49.486;12.176;2023-04-03T08:23:44;98308.81;;;3.19;60.31
29045;BME280;16133;49.486;12.176;2023-04-03T08:26:14;98309.03;;;3.40;61.25
29045;BME280;16133;49.486;12.176;2023-04-03T08:28:41;98303.94;;;3.84;59.50
29045;BME280;16133;49.486;12.176;2023-04-03T08:31:08;98307.56;;;3.94;61.90
29045;BME280;16133;49.486;12.176;2023-04-03T08:33:36;98308.44;;;4.28;59.87
29045;BME280;16133;49.486;12.176;2023-04-03T08:36:07;98304.25;;;4.70;59.00
29045;BME280;16133;49.486;12.176;2023-04-03T08:38:33;98312.09;;;4.92;57.91
29045;BME280;16133;49.486;12.176;2023-04-03T08:41:29;98308.34;;;5.17;56.47
29045;BME280;16133;49.486;12.176;2023-04-03T08:49:45;98306.31;;;5.73;54.19
29045;BME280;16133;49.486;12.176;2023-04-03T08:52:39;98304.81;;;5.91;54.08
29045;BME280;16133;49.486;12.176;2023-04-03T08:55:23;98312.91;;;5.99;52.06
29045;BME280;16133;49.486;12.176;2023-04-03T08:58:00;98312.91;;;5.67;51.93
29045;BME280;16133;49.486;12.176;2023-04-03T09:00:30;98319.44;;;5.20;50.41
29045;BME280;16133;49.486;12.176;2023-04-03T09:02:57;98311.72;;;4.97;48.95
29045;BME280;16133;49.486;12.176;2023-04-03T09:08:28;98325.75;;;4.53;50.71
29045;BME280;16133;49.486;12.176;2023-04-03T09:13:59;98336.47;;;4.27;54.02
29045;BME280;16133;49.486;12.176;2023-04-03T09:21:39;98346.47;;;4.00;51.75
29045;BME280;16133;49.486;12.176;2023-04-03T09:24:12;98346.66;;;3.86;51.02
29045;BME280;16133;49.486;12.176;2023-04-03T09:26:55;98351.84;;;3.64;52.09
29045;BME280;16133;49.486;12.176;2023-04-03T09:29:23;98333.34;;;3.65;51.57
29045;BME280;16133;49.486;12.176;2023-04-03T09:31:54;98335.13;;;3.65;52.67
29045;BME280;16133;49.486;12.176;2023-04-03T09:34:26;98333.16;;;3.79;54.02
29045;BME280;16133;49.486;12.176;2023-04-03T09:36:58;98339.72;;;3.74;54.09
29045;BME280;16133;49.486;12.176;2023-04-03T09:39:26;98340.56;;;3.74;52.38
29045;BME280;16133;49.486;12.176;2023-04-03T09:42:03;98258.84;;;3.09;52.34
29045;BME280;16133;49.486;12.176;2023-04-03T09:44:35;98323.19;;;3.61;53.86
29045;BME280;16133;49.486;12.176;2023-04-03T09:47:24;98322.50;;;3.70;53.21
29045;BME280;16133;49.486;12.176;2023-04-03T09:49:51;98321.16;;;3.99;49.58
29045;BME280;16133;49.486;12.176;2023-04-03T09:52:24;98325.69;;;3.97;51.86
29045;BME280;16133;49.486;12.176;2023-04-03T09:54:49;98328.19;;;3.99;49.48
29045;BME280;16133;49.486;12.176;2023-04-03T09:57:15;98325.38;;;4.13;50.06
29045;BME280;16133;49.486;12.176;2023-04-03T09:59:57;98329.81;;;4.34;50.20
29045;BME280;16133;49.486;12.176;2023-04-03T10:04:54;98318.56;;;4.66;50.49
29045;BME280;16133;49.486;12.176;2023-04-03T10:07:36;98307.22;;;4.65;50.85
29045;BME280;16133;49.486;12.176;2023-04-03T10:10:22;98310.94;;;4.74;49.06
29045;BME280;16133;49.486;12.176;2023-04-03T10:13:17;98311.66;;;4.31;51.48
29045;BME280;16133;49.486;12.176;2023-04-03T10:15:55;98325.03;;;4.17;49.56
29045;BME280;16133;49.486;12.176;2023-04-03T10:18:45;98315.03;;;3.88;50.38
29045;BME280;16133;49.486;12.176;2023-04-03T10:22:13;98332.16;;;3.69;49.88
29045;BME280;16133;49.486;12.176;2023-04-03T10:27:10;98300.84;;;3.79;50.21
29045;BME280;16133;49.486;12.176;2023-04-03T10:41:10;98310.34;;;3.80;47.44
29045;BME280;16133;49.486;12.176;2023-04-03T10:46:44;98305.59;;;3.85;48.67
29045;BME280;16133;49.486;12.176;2023-04-03T10:52:03;98308.09;;;3.75;45.97
29045;BME280;16133;49.486;12.176;2023-04-03T10:54:41;98272.03;;;3.55;44.36
29045;BME280;16133;49.486;12.176;2023-04-03T10:57:11;98313.44;;;3.63;45.92
29045;BME280;16133;49.486;12.176;2023-04-03T10:59:49;98299.81;;;3.58;47.20
29045;BME280;16133;49.486;12.176;2023-04-03T11:05:29;98280.22;;;3.51;46.05
29045;BME280;16133;49.486;12.176;2023-04-03T11:08:02;98280.28;;;3.73;44.50
29045;BME280;16133;49.486;12.176;2023-04-03T11:13:02;98274.13;;;3.85;45.16
29045;BME280;16133;49.486;12.176;2023-04-03T11:15:33;98293.69;;;4.03;43.87
29045;BME280;16133;49.486;12.176;2023-04-03T11:18:16;98302.06;;;4.08;45.50
29045;BME280;16133;49.486;12.176;2023-04-03T11:20:59;98293.59;;;4.05;44.30
29045;BME280;16133;49.486;12.176;2023-04-03T11:23:28;98284.13;;;3.91;43.51
29045;BME280;16133;49.486;12.176;2023-04-03T11:26:02;98286.56;;;3.94;44.91
29045;BME280;16133;49.486;12.176;2023-04-03T11:28:31;98264.19;;;3.66;44.04
29045;BME280;16133;49.486;12.176;2023-04-03T11:31:28;98279.13;;;3.88;44.12
29045;BME280;16133;49.486;12.176;2023-04-03T11:34:11;98278.19;;;4.00;46.55
29045;BME280;16133;49.486;12.176;2023-04-03T11:36:44;98276.75;;;4.29;45.44
29045;BME280;16133;49.486;12.176;2023-04-03T11:39:31;98272.69;;;4.14;46.10
29045;BME280;16133;49.486;12.176;2023-04-03T11:44:44;98251.69;;;4.25;45.06
29045;BME280;16133;49.486;12.176;2023-04-03T11:47:11;98262.69;;;4.30;45.33
29045;BME280;16133;49.486;12.176;2023-04-03T11:50:29;98235.94;;;4.14;45.33
29045;BME280;16133;49.486;12.176;2023-04-03T11:53:03;98247.16;;;4.16;47.51
29045;BME280;16133;49.486;12.176;2023-04-03T12:16:21;98215.63;;;4.93;44.00
29045;BME280;16133;49.486;12.176;2023-04-03T12:21:21;98215.88;;;5.21;44.12
29045;BME280;16133;49.486;12.176;2023-04-03T12:26:26;98198.91;;;5.14;44.19
29045;BME280;16133;49.486;12.176;2023-04-03T12:28:53;98219.22;;;5.23;44.90
29045;BME280;16133;49.486;12.176;2023-04-03T12:31:24;98231.75;;;5.31;43.48
29045;BME280;16133;49.486;12.176;2023-04-03T12:36:30;98220.44;;;5.19;42.67
29045;BME280;16133;49.486;12.176;2023-04-03T12:41:57;98216.22;;;5.28;42.62
29045;BME280;16133;49.486;12.176;2023-04-03T12:44:45;98215.84;;;5.33;46.40
29045;BME280;16133;49.486;12.176;2023-04-03T12:47:42;98151.50;;;5.05;43.53
29045;BME280;16133;49.486;12.176;2023-04-03T12:50:30;98206.91;;;5.45;43.38
29045;BME280;16133;49.486;12.176;2023-04-03T12:53:10;98215.00;;;5.32;44.29
29045;BME280;16133;49.486;12.176;2023-04-03T12:55:37;98215.31;;;5.39;44.19
29045;BME280;16133;49.486;12.176;2023-04-03T12:58:23;98206.28;;;5.32;43.06
29045;BME280;16133;49.486;12.176;2023-04-03T13:03:25;98218.22;;;5.36;43.83
29045;BME280;16133;49.486;12.176;2023-04-03T13:05:58;98177.00;;;5.46;44.05
29045;BME280;16133;49.486;12.176;2023-04-03T13:08:24;98209.28;;;5.89;43.70
29045;BME280;16133;49.486;12.176;2023-04-03T13:11:11;98205.13;;;6.17;44.90
29045;BME280;16133;49.486;12.176;2023-04-03T13:13:37;98206.69;;;6.29;44.33
29045;BME280;16133;49.486;12.176;2023-04-03T13:16:11;98219.28;;;6.25;43.39
29045;BME280;16133;49.486;12.176;2023-04-03T13:18:38;98206.59;;;6.10;42.97
29045;BME280;16133;49.486;12.176;2023-04-03T13:21:17;98210.97;;;5.90;42.44
29045;BME280;16133;49.486;12.176;2023-04-03T13:23:46;98199.19;;;5.94;43.06
29045;BME280;16133;49.486;12.176;2023-04-03T13:26:15;98192.00;;;5.96;42.62
29045;BME280;16133;49.486;12.176;2023-04-03T13:28:41;98191.13;;;5.86;43.21
29045;BME280;16133;49.486;12.176;2023-04-03T13:31:08;98200.78;;;6.06;44.05
29045;BME280;16133;49.486;12.176;2023-04-03T13:36:34;98201.06;;;5.62;42.60
29045;BME280;16133;49.486;12.176;2023-04-03T13:41:51;98176.53;;;5.20;44.48
29045;BME280;16133;49.486;12.176;2023-04-03T13:44:27;98199.84;;;5.45;44.33
29045;BME280;16133;49.486;12.176;2023-04-03T13:46:56;98188.41;;;5.14;45.56
29045;BME280;16133;49.486;12.176;2023-04-03T13:49:31;98168.66;;;5.20;45.94
29045;BME280;16133;49.486;12.176;2023-04-03T13:51:58;98195.66;;;5.22;47.10
29045;BME280;16133;49.486;12.176;2023-04-03T13:54:34;98192.97;;;5.33;47.43
29045;BME280;16133;49.486;12.176;2023-04-03T13:57:01;98183.81;;;5.27;46.55
29045;BME280;16133;49.486;12.176;2023-04-03T13:59:32;98175.97;;;5.37;46.65
29045;BME280;16133;49.486;12.176;2023-04-03T14:04:32;98188.59;;;5.22;43.63
29045;BME280;16133;49.486;12.176;2023-04-03T14:06:58;98201.91;;;5.21;43.15
29045;BME280;16133;49.486;12.176;2023-04-03T14:09:25;98186.97;;;5.10;43.90
29045;BME280;16133;49.486;12.176;2023-04-03T14:11:57;98175.47;;;4.91;43.87
29045;BME280;16133;49.486;12.176;2023-04-03T14:14:27;98188.44;;;5.03;43.14
29045;BME280;16133;49.486;12.176;2023-04-03T14:16:58;98192.50;;;5.07;42.47
29045;BME280;16133;49.486;12.176;2023-04-03T14:19:35;98184.88;;;5.04;43.76
29045;BME280;16133;49.486;12.176;2023-04-03T14:22:11;98183.66;;;5.08;45.56
29045;BME280;16133;49.486;12.176;2023-04-03T14:24:37;98180.00;;;5.20;44.02
29045;BME280;16133;49.486;12.176;2023-04-03T14:27:13;98191.44;;;5.30;44.79
29045;BME280;16133;49.486;12.176;2023-04-03T14:29:40;98193.81;;;5.34;44.16
29045;BME280;16133;49.486;12.176;2023-04-03T14:32:06;98178.72;;;5.15;44.36
29045;BME280;16133;49.486;12.176;2023-04-03T14:34:31;98157.34;;;5.08;45.77